Time;durP1;ratioP1;P1;durP2;ratioP2;P2;SDS_P1;SDS_P2;PMS_P1;PMS_P2;Temp;Humidity;BMP_temperature;BMP_pressure;BME280_temperature;BME280_humidity;BME280_pressure;Samples;Min_cycle;Max_cycle;Signal;HPM_P1;HPM_P2
2021/09/01 00:00:31;;;;;;;26.65;12.05;;;18.70;98.00;;;;;;4257501;27;20099;-65
2021/09/01 00:02:34;;;;;;;26.85;12.13;;;18.70;98.20;;;;;;4257515;27;20124;-65
2021/09/01 00:04:37;;;;;;;26.33;12.70;;;18.50;98.50;;;;;;4257609;27;20080;-65
2021/09/01 00:06:40;;;;;;;25.13;12.25;;;18.60;98.50;;;;;;4257408;27;20281;-65
2021/09/01 00:08:44;;;;;;;29.50;13.77;;;18.60;98.70;;;;;;4257687;27;20285;-66
2021/09/01 00:10:46;;;;;;;27.60;12.70;;;18.70;98.10;;;;;;4257445;27;20111;-65
2021/09/01 00:12:49;;;;;;;31.55;13.43;;;18.70;98.20;;;;;;4257509;27;20051;-65
2021/09/01 00:14:54;;;;;;;29.85;12.98;;;18.50;98.60;;;;;;4257722;27;20051;-65
2021/09/01 00:16:57;;;;;;;30.27;14.05;;;18.40;99.10;;;;;;4257599;27;20054;-65
2021/09/01 00:19:02;;;;;;;29.08;13.82;;;18.40;98.90;;;;;;4257612;27;20047;-65
2021/09/01 00:21:05;;;;;;;26.88;13.75;;;18.50;99.00;;;;;;4257700;27;20082;-65
2021/09/01 00:23:10;;;;;;;25.38;13.00;;;18.40;99.00;;;;;;4257362;27;20066;-65
2021/09/01 00:25:13;;;;;;;34.90;14.38;;;18.40;99.30;;;;;;4257270;27;20050;-65
2021/09/01 00:27:16;;;;;;;30.63;13.38;;;18.30;99.50;;;;;;4257187;27;20392;-65
2021/09/01 00:29:19;;;;;;;27.88;14.07;;;18.30;99.60;;;;;;4257152;27;20050;-65
2021/09/01 00:31:24;;;;;;;30.17;13.70;;;18.30;99.70;;;;;;4257192;27;20047;-65
2021/09/01 00:33:27;;;;;;;26.88;14.60;;;18.20;99.90;;;;;;4239265;28;20055;-65
2021/09/01 00:35:30;;;;;;;29.88;13.88;;;18.20;99.90;;;;;;4257069;27;20047;-65
2021/09/01 00:37:33;;;;;;;30.75;14.00;;;18.30;99.60;;;;;;4256949;27;20051;-65
2021/09/01 00:39:36;;;;;;;31.77;14.75;;;18.10;99.90;;;;;;4257251;27;20059;-65
2021/09/01 00:41:39;;;;;;;30.52;15.38;;;18.10;99.90;;;;;;4256978;27;20084;-65
2021/09/01 00:43:42;;;;;;;27.65;14.43;;;18.30;99.70;;;;;;4256997;27;20054;-65
2021/09/01 00:45:45;;;;;;;29.30;14.20;;;18.20;99.90;;;;;;4257058;27;20055;-65
2021/09/01 00:47:50;;;;;;;28.13;15.32;;;18.30;99.80;;;;;;4256920;27;20084;-65
2021/09/01 00:49:53;;;;;;;39.92;14.30;;;18.40;99.60;;;;;;4257009;27;20347;-65
2021/09/01 00:51:57;;;;;;;26.90;14.18;;;18.40;99.30;;;;;;4257164;27;20076;-65
2021/09/01 00:54:00;;;;;;;28.90;14.68;;;18.40;99.20;;;;;;4256817;27;20067;-65
2021/09/01 00:56:04;;;;;;;31.10;15.43;;;18.30;99.60;;;;;;4256479;27;20054;-65
2021/09/01 00:58:08;;;;;;;28.40;15.43;;;18.20;99.90;;;;;;4256928;27;20100;-65
2021/09/01 01:00:16;;;;;;;24.33;14.18;;;18.10;99.90;;;;;;4256833;27;20051;-65
2021/09/01 01:02:21;;;;;;;31.83;15.07;;;18.10;99.90;;;;;;4256371;27;20108;-65
2021/09/01 01:04:25;;;;;;;;;;;18.10;99.90;;;;;;4257158;27;20371;-65
2021/09/01 01:06:29;;;;;;;29.98;16.38;;;18.20;99.90;;;;;;4256649;27;19967;-65
2021/09/01 01:08:32;;;;;;;33.33;15.93;;;18.00;99.90;;;;;;4256823;27;20051;-65
2021/09/01 01:10:35;;;;;;;32.20;16.58;;;17.90;99.90;;;;;;4238763;28;20052;-68
2021/09/01 01:12:38;;;;;;;26.20;15.60;;;18.00;99.90;;;;;;4256283;27;20358;-65
2021/09/01 01:14:42;;;;;;;29.67;15.38;;;18.00;99.90;;;;;;4256647;27;20051;-65
2021/09/01 01:16:45;;;;;;;27.85;16.02;;;18.10;99.90;;;;;;4238329;28;20205;-65
2021/09/01 01:18:50;;;;;;;33.92;16.73;;;18.00;99.90;;;;;;4256381;27;20278;-65
2021/09/01 01:20:55;;;;;;;31.13;16.50;;;17.80;99.90;;;;;;4238706;28;20085;-65
2021/09/01 01:22:59;;;;;;;37.15;16.05;;;17.90;99.90;;;;;;4258076;27;20103;-65
2021/09/01 01:25:05;;;;;;;31.83;16.98;;;18.00;99.90;;;;;;4256453;27;20246;-65
2021/09/01 01:27:25;;;;;;;27.90;17.00;;;17.90;99.90;;;;;;4257305;27;20051;-65
2021/09/01 01:29:27;;;;;;;26.40;16.05;;;17.90;99.90;;;;;;4256758;27;20050;-65
2021/09/01 01:31:31;;;;;;;31.77;17.48;;;17.80;99.90;;;;;;4256535;27;20272;-65
2021/09/01 01:33:34;;;;;;;31.10;16.77;;;17.90;99.90;;;;;;4256308;27;20059;-66
2021/09/01 01:35:38;;;;;;;33.67;16.48;;;17.80;99.90;;;;;;4256097;27;20051;-66
2021/09/01 01:37:41;;;;;;;31.30;17.23;;;17.80;99.90;;;;;;4256244;27;20108;-66
2021/09/01 01:39:44;;;;;;;31.92;17.90;;;17.90;99.90;;;;;;4256216;27;20092;-66
2021/09/01 01:41:47;;;;;;;35.00;17.67;;;17.90;99.90;;;;;;4256167;27;20055;-64
2021/09/01 01:43:51;;;;;;;31.95;18.23;;;17.80;99.90;;;;;;4255832;27;20285;-63
2021/09/01 01:45:54;;;;;;;30.52;18.25;;;17.80;99.90;;;;;;4256281;27;20131;-65
2021/09/01 01:47:57;;;;;;;36.38;18.33;;;17.70;99.90;;;;;;4256171;27;20338;-65
2021/09/01 01:50:00;;;;;;;33.33;19.02;;;17.70;99.90;;;;;;4256074;27;20051;-65
2021/09/01 01:52:04;;;;;;;30.50;18.05;;;17.70;99.90;;;;;;4253467;27;20081;-66
2021/09/01 01:54:06;;;;;;;31.65;18.88;;;17.60;99.90;;;;;;4255697;27;20050;-65
2021/09/01 01:56:09;;;;;;;34.95;18.98;;;17.60;99.90;;;;;;4256095;27;20051;-63
2021/09/01 01:58:12;;;;;;;36.60;19.30;;;17.70;99.90;;;;;;4255709;27;20103;-63
2021/09/01 02:00:17;;;;;;;42.45;20.27;;;17.70;99.90;;;;;;4255933;27;20080;-65
2021/09/01 02:02:20;;;;;;;38.88;20.40;;;17.60;99.90;;;;;;4255828;27;20400;-65
2021/09/01 02:04:23;;;;;;;37.78;19.83;;;17.60;99.90;;;;;;4237590;27;20060;-63
2021/09/01 02:06:27;;;;;;;33.20;19.80;;;17.70;99.90;;;;;;4255711;27;20051;-63
2021/09/01 02:08:29;;;;;;;32.38;19.88;;;17.50;99.90;;;;;;4255649;27;20100;-65
2021/09/01 02:10:32;;;;;;;33.38;19.38;;;17.50;99.90;;;;;;4255741;27;20051;-63
2021/09/01 02:12:36;;;;;;;38.53;21.30;;;17.50;99.90;;;;;;4255607;27;20051;-65
2021/09/01 02:14:39;;;;;;;37.55;21.60;;;17.50;99.90;;;;;;4254869;27;20220;-65
2021/09/01 02:16:43;;;;;;;40.58;21.58;;;17.50;99.90;;;;;;4255462;27;20055;-66
2021/09/01 02:18:46;;;;;;;32.03;20.20;;;17.40;99.90;;;;;;4255570;27;20040;-65
2021/09/01 02:20:49;;;;;;;38.28;21.27;;;17.40;99.90;;;;;;4255326;27;20384;-65
2021/09/01 02:22:52;;;;;;;33.70;20.45;;;17.40;99.90;;;;;;4255415;27;20058;-65
2021/09/01 02:24:55;;;;;;;37.47;21.20;;;17.50;99.90;;;;;;4255719;27;20043;-65
2021/09/01 02:26:57;;;;;;;35.20;20.33;;;17.40;99.90;;;;;;4255384;27;20051;-65
2021/09/01 02:29:01;;;;;;;38.45;21.63;;;17.50;99.90;;;;;;4255573;27;20043;-65
2021/09/01 02:31:04;;;;;;;35.92;21.23;;;17.40;99.90;;;;;;4255127;27;20076;-65
2021/09/01 02:33:08;;;;;;;36.38;21.67;;;17.50;99.90;;;;;;4255055;27;20286;-65
2021/09/01 02:35:15;;;;;;;41.47;21.75;;;17.50;99.90;;;;;;4255227;27;20051;-65
2021/09/01 02:37:18;;;;;;;40.83;21.23;;;17.50;99.90;;;;;;4255231;27;20096;-65
2021/09/01 02:39:21;;;;;;;34.85;21.23;;;17.30;99.90;;;;;;4255146;27;20059;-65
2021/09/01 02:41:24;;;;;;;33.90;21.20;;;17.30;99.90;;;;;;4255149;27;20100;-65
2021/09/01 02:43:27;;;;;;;37.95;21.63;;;17.40;99.90;;;;;;4255174;27;20059;-65
2021/09/01 02:45:30;;;;;;;33.65;22.08;;;17.40;99.90;;;;;;4255024;27;20059;-65
2021/09/01 02:47:33;;;;;;;42.47;23.73;;;17.40;99.90;;;;;;4255247;27;20050;-65
2021/09/01 02:49:38;;;;;;;31.63;20.73;;;17.30;99.90;;;;;;4255210;27;20436;-65
2021/09/01 02:51:41;;;;;;;34.40;20.77;;;17.40;99.90;;;;;;4255201;27;20391;-65
2021/09/01 02:53:44;;;;;;;40.10;22.88;;;17.40;99.90;;;;;;4254997;27;20055;-65
2021/09/01 02:55:47;;;;;;;41.70;22.75;;;17.30;99.90;;;;;;4255129;27;20099;-69
2021/09/01 02:57:49;;;;;;;35.05;21.95;;;17.40;99.90;;;;;;4255109;27;20051;-65
2021/09/01 02:59:52;;;;;;;36.45;21.55;;;17.40;99.90;;;;;;4254963;27;20053;-65
2021/09/01 03:01:55;;;;;;;39.38;22.77;;;17.50;99.90;;;;;;4255105;27;20064;-65
2021/09/01 03:03:59;;;;;;;36.30;22.42;;;17.50;99.90;;;;;;4254779;28;20339;-65
2021/09/01 03:06:03;;;;;;;34.42;21.92;;;17.50;99.90;;;;;;4254985;28;20220;-65
2021/09/01 03:08:07;;;;;;;32.83;21.83;;;17.40;99.90;;;;;;4254887;28;20216;-65
2021/09/01 03:10:10;;;;;;;41.77;21.13;;;17.30;99.90;;;;;;4254895;28;20265;-65
2021/09/01 03:12:13;;;;;;;32.13;21.70;;;17.50;99.90;;;;;;4254681;28;21046;-65
2021/09/01 03:14:16;;;;;;;35.70;21.75;;;17.50;99.90;;;;;;4255097;28;20055;-65
2021/09/01 03:16:19;;;;;;;37.92;22.70;;;17.50;99.90;;;;;;4254963;28;20051;-64
2021/09/01 03:18:22;;;;;;;40.17;21.30;;;17.50;99.90;;;;;;4254773;28;20051;-65
2021/09/01 03:20:25;;;;;;;37.60;21.83;;;17.50;99.90;;;;;;4254990;28;20099;-65
2021/09/01 03:22:30;;;;;;;38.85;20.63;;;17.40;99.90;;;;;;4255230;28;20103;-65
2021/09/01 03:24:33;;;;;;;34.58;19.90;;;17.50;99.90;;;;;;4254981;28;20051;-65
2021/09/01 03:26:36;;;;;;;40.47;19.90;;;17.70;99.90;;;;;;4254617;27;20241;-65
2021/09/01 03:28:39;;;;;;;36.38;19.70;;;17.90;99.90;;;;;;4256403;27;20108;-65
2021/09/01 03:30:42;;;;;;;34.10;20.23;;;17.90;99.90;;;;;;4258507;27;20100;-64
2021/09/01 03:32:45;;;;;;;36.15;19.80;;;17.80;99.90;;;;;;4258669;27;20051;-65
2021/09/01 03:34:48;;;;;;;32.05;18.65;;;17.70;99.90;;;;;;4258775;27;20107;-65
2021/09/01 03:36:51;;;;;;;34.22;21.10;;;17.70;99.90;;;;;;4257975;27;20324;-65
2021/09/01 03:38:57;;;;;;;37.70;19.83;;;17.70;99.90;;;;;;4258517;27;20122;-66
2021/09/01 03:41:00;;;;;;;31.00;19.05;;;17.50;99.90;;;;;;4258429;27;20457;-65
2021/09/01 03:43:03;;;;;;;38.72;20.40;;;17.40;99.90;;;;;;4258365;27;20051;-65
2021/09/01 03:45:07;;;;;;;33.70;20.23;;;17.40;99.90;;;;;;4258220;27;20051;-64
2021/09/01 03:47:10;;;;;;;41.58;21.20;;;17.30;99.90;;;;;;4258613;27;20361;-64
2021/09/01 03:49:17;;;;;;;32.47;20.30;;;17.00;99.90;;;;;;4258684;27;20434;-64
2021/09/01 03:51:20;;;;;;;37.17;21.15;;;17.20;99.90;;;;;;4258429;27;20100;-64
2021/09/01 03:53:23;;;;;;;36.78;21.67;;;17.10;99.90;;;;;;4257950;27;20078;-64
2021/09/01 03:55:28;;;;;;;38.42;21.63;;;17.30;99.90;;;;;;4258434;27;20047;-64
2021/09/01 03:57:31;;;;;;;37.15;22.08;;;17.10;99.90;;;;;;4258104;27;20047;-64
2021/09/01 03:59:34;;;;;;;40.35;23.33;;;17.10;99.90;;;;;;4258279;27;20050;-64
2021/09/01 04:01:39;;;;;;;34.53;21.88;;;17.20;99.90;;;;;;4258233;27;20059;-64
2021/09/01 04:03:43;;;;;;;39.50;22.63;;;17.20;99.90;;;;;;4257964;27;20058;-64
2021/09/01 04:05:46;;;;;;;44.58;22.25;;;17.00;99.90;;;;;;4257831;27;20243;-64
2021/09/01 04:07:49;;;;;;;44.90;23.70;;;16.90;99.90;;;;;;4258110;27;20051;-64
2021/09/01 04:09:52;;;;;;;37.90;22.75;;;16.80;99.90;;;;;;4255918;27;20470;-64
2021/09/01 04:11:57;;;;;;;36.72;22.77;;;17.10;99.90;;;;;;4258034;27;20079;-64
2021/09/01 04:14:00;;;;;;;38.47;21.48;;;17.10;99.90;;;;;;4257976;27;20094;-64
2021/09/01 04:16:04;;;;;;;39.08;22.58;;;17.30;99.90;;;;;;4257744;27;20066;-64
2021/09/01 04:18:07;;;;;;;39.17;21.73;;;17.30;99.90;;;;;;4257839;27;20071;-63
2021/09/01 04:20:11;;;;;;;36.17;21.42;;;17.50;99.90;;;;;;4257751;27;20051;-66
2021/09/01 04:22:14;;;;;;;34.63;22.13;;;17.40;99.90;;;;;;4258048;27;20058;-63
2021/09/01 04:24:18;;;;;;;40.53;22.45;;;17.40;99.90;;;;;;4257867;27;20067;-64
2021/09/01 04:26:21;;;;;;;41.53;22.85;;;17.30;99.90;;;;;;4257750;27;20043;-63
2021/09/01 04:28:25;;;;;;;40.13;23.30;;;17.30;99.90;;;;;;4239674;28;20062;-64
2021/09/01 04:30:28;;;;;;;36.95;22.70;;;17.20;99.90;;;;;;4257439;27;20115;-66
2021/09/01 04:32:31;;;;;;;39.38;22.75;;;17.10;99.90;;;;;;4257461;27;20051;-66
2021/09/01 04:34:34;;;;;;;36.13;22.88;;;17.20;99.90;;;;;;4257367;27;20107;-63
2021/09/01 04:36:37;;;;;;;41.13;24.05;;;17.10;99.90;;;;;;4257204;27;20099;-63
2021/09/01 04:38:40;;;;;;;38.72;22.73;;;17.00;99.90;;;;;;4254260;27;20080;-66
2021/09/01 04:40:43;;;;;;;45.80;24.08;;;16.80;99.90;;;;;;4257101;27;20051;-66
2021/09/01 04:42:46;;;;;;;84.00;27.85;;;16.80;99.90;;;;;;4257053;27;20051;-67
2021/09/01 04:44:50;;;;;;;55.53;23.77;;;16.90;99.90;;;;;;4257032;27;20059;-66
2021/09/01 04:46:53;;;;;;;34.22;22.45;;;17.10;99.90;;;;;;4257230;27;20092;-66
2021/09/01 04:48:56;;;;;;;40.55;23.13;;;17.10;99.90;;;;;;4257322;27;20092;-65
2021/09/01 04:50:59;;;;;;;35.28;21.83;;;17.20;99.90;;;;;;4257504;27;20108;-65
2021/09/01 04:53:02;;;;;;;40.60;23.80;;;17.30;99.90;;;;;;4257104;27;20051;-65
2021/09/01 04:55:06;;;;;;;38.45;24.08;;;17.10;99.90;;;;;;4255057;27;20059;-65
2021/09/01 04:57:09;;;;;;;45.22;23.13;;;17.00;99.90;;;;;;4254699;27;20066;-66
2021/09/01 04:59:12;;;;;;;39.22;23.20;;;17.20;99.90;;;;;;4257366;27;20100;-68
2021/09/01 05:01:16;;;;;;;40.35;22.58;;;17.20;99.90;;;;;;4238810;27;20393;-65
2021/09/01 05:03:19;;;;;;;42.65;23.50;;;17.10;99.90;;;;;;4256330;27;20343;-65
2021/09/01 05:05:22;;;;;;;39.60;22.95;;;17.20;99.90;;;;;;4253296;27;20055;-65
2021/09/01 05:07:25;;;;;;;41.15;24.13;;;17.30;99.90;;;;;;4256741;27;20055;-64
2021/09/01 05:09:32;;;;;;;34.45;22.67;;;17.50;99.90;;;;;;4252912;27;20047;-64
2021/09/01 05:11:35;;;;;;;42.95;23.40;;;17.30;99.90;;;;;;4256704;27;20052;-64
2021/09/01 05:13:38;;;;;;;42.95;23.17;;;17.30;99.90;;;;;;4256660;27;20055;-66
2021/09/01 05:15:41;;;;;;;39.78;22.85;;;17.40;99.90;;;;;;4256457;27;20059;-64
2021/09/01 05:17:46;;;;;;;36.42;23.38;;;17.40;99.90;;;;;;4238854;28;20058;-64
2021/09/01 05:19:49;;;;;;;47.92;25.40;;;17.20;99.90;;;;;;4239256;28;20297;-64
2021/09/01 05:21:54;;;;;;;37.15;22.65;;;17.20;99.90;;;;;;4256823;27;20088;-64
2021/09/01 05:23:57;;;;;;;33.70;22.20;;;17.20;99.90;;;;;;4256499;27;20051;-64
2021/09/01 05:26:02;;;;;;;31.75;22.88;;;17.10;99.90;;;;;;4256612;27;20058;-64
2021/09/01 05:28:06;;;;;;;42.65;23.65;;;16.90;99.90;;;;;;4256668;27;20059;-64
2021/09/01 05:30:11;;;;;;;39.03;21.85;;;16.80;99.90;;;;;;4256264;27;20350;-64
2021/09/01 05:32:18;;;;;;;43.92;23.38;;;16.90;99.90;;;;;;4256464;27;20100;-64
2021/09/01 05:34:23;;;;;;;41.58;22.63;;;16.90;99.90;;;;;;4256353;27;20039;-64
2021/09/01 05:36:26;;;;;;;;;;;16.90;99.90;;;;;;4256625;27;20062;-64
2021/09/01 05:38:32;;;;;;;34.25;23.15;;;17.00;99.90;;;;;;4256121;27;19919;-64
2021/09/01 05:40:39;;;;;;;48.47;24.60;;;16.90;99.90;;;;;;4256463;27;20101;-64
2021/09/01 05:42:42;;;;;;;41.90;22.48;;;16.80;99.90;;;;;;4256197;27;20269;-64
2021/09/01 05:44:46;;;;;;;38.08;23.02;;;17.10;99.90;;;;;;4256122;27;20063;-64
2021/09/01 05:46:52;;;;;;;43.88;21.48;;;17.10;99.90;;;;;;4256422;27;20258;-64
2021/09/01 05:48:55;;;;;;;39.67;23.33;;;17.20;99.90;;;;;;4255015;27;20050;-64
2021/09/01 05:51:01;;;;;;;42.15;24.25;;;17.20;99.90;;;;;;4255649;27;20055;-64
2021/09/01 05:53:04;;;;;;;34.72;22.67;;;17.20;99.90;;;;;;4255176;27;20096;-64
2021/09/01 05:55:10;;;;;;;40.80;23.05;;;17.20;99.90;;;;;;4255214;27;20119;-64
2021/09/01 05:57:15;;;;;;;38.58;23.48;;;17.30;99.90;;;;;;4255993;27;20067;-64
2021/09/01 05:59:23;;;;;;;37.30;21.48;;;17.40;99.90;;;;;;4255779;27;20051;-64
2021/09/01 06:01:31;;;;;;;38.67;22.10;;;17.40;99.90;;;;;;4255346;27;20262;-64
2021/09/01 06:03:41;;;;;;;36.15;22.17;;;17.40;99.90;;;;;;4255457;27;20103;-64
2021/09/01 06:05:46;;;;;;;37.42;21.65;;;17.40;99.90;;;;;;4255601;27;20047;-64
2021/09/01 06:07:55;;;;;;;41.53;21.27;;;17.40;99.90;;;;;;4255811;27;20100;-64
2021/09/01 06:10:00;;;;;;;32.63;21.23;;;17.30;99.90;;;;;;4255947;27;20406;-64
2021/09/01 06:12:04;;;;;;;41.85;21.73;;;17.40;99.90;;;;;;4255673;27;20114;-64
2021/09/01 06:14:07;;;;;;;43.53;22.15;;;17.50;99.90;;;;;;4255625;27;20055;-64
2021/09/01 06:16:10;;;;;;;34.03;21.67;;;17.50;99.90;;;;;;4255300;27;20055;-64
2021/09/01 06:18:13;;;;;;;32.05;19.50;;;17.40;99.90;;;;;;4237591;28;20093;-64
2021/09/01 06:20:16;;;;;;;43.17;21.75;;;17.50;99.90;;;;;;4255492;27;20055;-64
2021/09/01 06:22:19;;;;;;;37.10;22.02;;;17.30;99.90;;;;;;4255385;27;20058;-64
2021/09/01 06:24:23;;;;;;;39.60;20.80;;;17.30;99.90;;;;;;4255464;27;20289;-64
2021/09/01 06:26:26;;;;;;;41.42;21.95;;;17.40;99.90;;;;;;4255496;27;20054;-64
2021/09/01 06:28:29;;;;;;;42.40;22.08;;;17.30;99.90;;;;;;4237388;28;20281;-64
2021/09/01 06:30:33;;;;;;;33.53;22.08;;;17.30;99.90;;;;;;4255302;27;20051;-64
2021/09/01 06:32:36;;;;;;;41.80;22.38;;;17.10;99.90;;;;;;4255540;27;20069;-64
2021/09/01 06:34:40;;;;;;;44.75;22.25;;;17.20;99.90;;;;;;4237338;28;20097;-64
2021/09/01 06:36:44;;;;;;;47.53;21.88;;;17.30;99.90;;;;;;4255422;27;20059;-64
2021/09/01 06:38:47;;;;;;;41.42;21.48;;;17.30;99.90;;;;;;4255265;27;20055;-64
2021/09/01 06:40:51;;;;;;;37.85;22.23;;;17.40;99.90;;;;;;4255160;27;20077;-64
2021/09/01 06:42:54;;;;;;;37.03;21.00;;;17.10;99.90;;;;;;4255129;27;20388;-64
2021/09/01 06:44:57;;;;;;;32.10;21.17;;;17.30;99.90;;;;;;4255094;27;20051;-64
2021/09/01 06:47:00;;;;;;;35.78;22.00;;;17.40;99.90;;;;;;4255020;27;20055;-64
2021/09/01 06:49:03;;;;;;;43.63;22.35;;;17.20;99.90;;;;;;4255015;27;20047;-64
2021/09/01 06:51:06;;;;;;;33.78;21.90;;;17.30;99.90;;;;;;4255015;27;20051;-64
2021/09/01 06:53:12;;;;;;;35.03;21.67;;;17.30;99.90;;;;;;4236947;28;20051;-64
2021/09/01 06:55:15;;;;;;;35.35;21.58;;;17.30;99.90;;;;;;4255311;27;20051;-64
2021/09/01 06:57:19;;;;;;;41.88;22.85;;;17.40;99.90;;;;;;4254892;27;20301;-64
2021/09/01 06:59:22;;;;;;;40.42;21.20;;;17.40;99.90;;;;;;4254928;27;20055;-64
2021/09/01 07:01:25;;;;;;;38.22;21.10;;;17.60;99.90;;;;;;4254770;27;20100;-65
2021/09/01 07:03:28;;;;;;;34.83;21.55;;;17.70;99.90;;;;;;4236592;28;20522;-64
2021/09/01 07:05:32;;;;;;;42.03;21.90;;;17.60;99.90;;;;;;4253942;27;20051;-64
2021/09/01 07:07:34;;;;;;;35.65;20.92;;;17.60;99.90;;;;;;4255114;28;20078;-64
2021/09/01 07:09:37;;;;;;;38.33;21.17;;;17.60;99.90;;;;;;4254853;28;20058;-64
2021/09/01 07:11:40;;;;;;;36.67;20.98;;;17.70;99.90;;;;;;4254787;28;20385;-64
2021/09/01 07:13:45;;;;;;;39.50;20.85;;;17.70;99.90;;;;;;4236692;28;20048;-64
2021/09/01 07:15:48;;;;;;;40.28;20.63;;;17.80;99.90;;;;;;4254830;28;20108;-64
2021/09/01 07:17:51;;;;;;;44.55;19.48;;;17.80;99.90;;;;;;4254925;28;20278;-64
2021/09/01 07:19:54;;;;;;;31.75;20.13;;;17.70;99.90;;;;;;4254891;28;20051;-64
2021/09/01 07:22:05;;;;;;;33.67;20.38;;;17.70;99.90;;;;;;4254918;28;20051;-64
2021/09/01 07:24:09;;;;;;;34.67;20.05;;;17.60;99.90;;;;;;4254870;28;20127;-63
2021/09/01 07:26:13;;;;;;;34.97;21.13;;;17.70;99.90;;;;;;4254733;28;20343;-64
2021/09/01 07:28:16;;;;;;;32.55;20.75;;;17.70;99.90;;;;;;4254887;28;20475;-64
2021/09/01 07:30:20;;;;;;;47.65;19.92;;;17.60;99.90;;;;;;4254243;28;20047;-64
2021/09/01 07:32:23;;;;;;;38.33;21.25;;;17.70;99.90;;;;;;4252648;28;20339;-64
2021/09/01 07:34:26;;;;;;;34.17;18.98;;;17.70;99.90;;;;;;4254709;28;20092;-64
2021/09/01 07:36:29;;;;;;;32.70;19.45;;;17.90;99.90;;;;;;4254734;28;20059;-64
2021/09/01 07:38:32;;;;;;;33.42;18.90;;;17.90;99.90;;;;;;4254734;28;20051;-64
2021/09/01 07:40:35;;;;;;;37.40;18.48;;;17.80;99.90;;;;;;4254871;28;20055;-64
2021/09/01 07:42:38;;;;;;;36.35;18.88;;;17.80;99.90;;;;;;4254964;28;20281;-64
2021/09/01 07:44:41;;;;;;;33.17;17.73;;;17.90;99.90;;;;;;4254768;28;20331;-64
2021/09/01 07:46:46;;;;;;;27.52;17.00;;;17.90;99.90;;;;;;4255001;28;20051;-65
2021/09/01 07:48:49;;;;;;;32.83;17.98;;;17.80;99.90;;;;;;4254458;28;20047;-64
2021/09/01 07:50:52;;;;;;;35.67;18.55;;;17.90;99.90;;;;;;4254596;28;20278;-64
2021/09/01 07:52:55;;;;;;;36.80;19.08;;;17.90;99.90;;;;;;4254723;28;20051;-64
2021/09/01 07:54:58;;;;;;;32.83;19.20;;;17.80;99.90;;;;;;4254444;28;20282;-65
2021/09/01 07:57:06;;;;;;;32.08;19.40;;;17.80;99.90;;;;;;4237458;28;20282;-64
2021/09/01 07:59:09;;;;;;;35.65;19.63;;;17.80;99.90;;;;;;4254631;28;20055;-64
2021/09/01 08:01:12;;;;;;;30.92;19.00;;;17.70;99.90;;;;;;4254613;28;20104;-64
2021/09/01 08:03:17;;;;;;;32.15;19.52;;;17.60;99.90;;;;;;4254461;28;20088;-64
2021/09/01 08:05:21;;;;;;;35.03;18.45;;;17.70;99.90;;;;;;4253967;28;20343;-64
2021/09/01 08:07:24;;;;;;;34.53;18.67;;;17.80;99.90;;;;;;4254505;28;20126;-64
2021/09/01 08:09:27;;;;;;;38.20;18.92;;;18.00;99.90;;;;;;4254356;28;20055;-64
2021/09/01 08:11:31;;;;;;;27.08;18.83;;;18.00;99.90;;;;;;4254745;28;20055;-68
2021/09/01 08:13:34;;;;;;;37.28;19.42;;;18.10;99.90;;;;;;4256771;27;20051;-64
2021/09/01 08:15:37;;;;;;;34.33;18.95;;;18.00;99.90;;;;;;4257561;27;20335;-64
2021/09/01 08:17:40;;;;;;;37.20;19.55;;;17.80;99.90;;;;;;4257284;27;20227;-64
2021/09/01 08:19:45;;;;;;;39.33;18.15;;;17.90;99.90;;;;;;4257385;27;20300;-64
2021/09/01 08:21:48;;;;;;;40.00;18.40;;;17.90;99.90;;;;;;4257455;27;20100;-64
2021/09/01 08:23:51;;;;;;;25.20;17.38;;;18.00;99.80;;;;;;4257691;27;20293;-64
2021/09/01 08:25:54;;;;;;;35.83;18.10;;;18.00;99.90;;;;;;4257655;27;20123;-64
2021/09/01 08:27:57;;;;;;;31.08;16.35;;;18.10;99.80;;;;;;4257460;27;20059;-64
2021/09/01 08:30:00;;;;;;;30.00;17.27;;;18.20;99.60;;;;;;4257631;27;20072;-64
2021/09/01 08:32:04;;;;;;;28.17;16.50;;;18.40;99.30;;;;;;4257339;27;20051;-64
2021/09/01 08:34:07;;;;;;;28.63;17.48;;;18.10;99.50;;;;;;4257261;27;20093;-64
2021/09/01 08:36:11;;;;;;;29.63;17.65;;;18.20;99.50;;;;;;4257313;27;20051;-64
2021/09/01 08:38:14;;;;;;;31.42;17.05;;;18.10;99.70;;;;;;4256917;27;20465;-64
2021/09/01 08:40:17;;;;;;;36.50;17.67;;;18.30;99.50;;;;;;4257168;27;20051;-64
2021/09/01 08:42:22;;;;;;;30.00;15.93;;;18.40;99.20;;;;;;4257250;27;20063;-64
2021/09/01 08:44:25;;;;;;;31.08;16.88;;;18.60;99.00;;;;;;4256923;27;20076;-64
2021/09/01 08:46:30;;;;;;;33.17;17.15;;;18.50;98.80;;;;;;4257217;27;20051;-64
2021/09/01 08:48:38;;;;;;;30.45;16.63;;;18.50;98.80;;;;;;4257102;27;20051;-64
2021/09/01 08:50:42;;;;;;;28.58;17.00;;;18.70;98.70;;;;;;4257102;27;20047;-64
2021/09/01 08:52:46;;;;;;;34.90;16.00;;;18.90;98.60;;;;;;4239127;28;20052;-64
2021/09/01 08:54:49;;;;;;;30.70;16.63;;;19.00;98.10;;;;;;4257101;27;20512;-64
2021/09/01 08:56:52;;;;;;;26.60;16.45;;;19.00;97.80;;;;;;4256793;27;20077;-64
2021/09/01 08:58:55;;;;;;;34.45;15.95;;;19.10;97.80;;;;;;4256805;27;20101;-64
2021/09/01 09:00:59;;;;;;;34.53;16.38;;;19.10;97.70;;;;;;4256668;27;20043;-64
2021/09/01 09:03:02;;;;;;;40.35;16.20;;;19.30;97.50;;;;;;4256907;27;20043;-64
2021/09/01 09:05:07;;;;;;;35.60;15.50;;;19.40;97.40;;;;;;4256476;27;20055;-64
2021/09/01 09:07:10;;;;;;;;;;;19.40;97.10;;;;;;4257220;27;20054;-64
2021/09/01 09:09:15;;;;;;;35.13;15.38;;;19.40;97.00;;;;;;4256902;27;19915;-64
2021/09/01 09:11:32;;;;;;;31.30;16.05;;;19.40;97.20;;;;;;4257033;27;20142;-64
2021/09/01 09:13:36;;;;;;;25.65;15.40;;;19.20;97.10;;;;;;4256808;27;20054;-64
2021/09/01 09:15:41;;;;;;;30.60;15.07;;;19.30;97.00;;;;;;4257081;27;20055;-64
2021/09/01 09:17:44;;;;;;;30.63;15.98;;;19.30;97.20;;;;;;4257046;27;20387;-64
2021/09/01 09:19:53;;;;;;;35.63;14.88;;;19.30;97.00;;;;;;4256546;27;20055;-64
2021/09/01 09:22:04;;;;;;;31.23;13.48;;;19.30;97.30;;;;;;4256532;27;20250;-64
2021/09/01 09:24:21;;;;;;;28.15;14.57;;;19.20;97.40;;;;;;4256647;27;20055;-64
2021/09/01 09:26:26;;;;;;;28.60;14.20;;;19.50;97.00;;;;;;4238487;28;20051;-64
2021/09/01 09:28:29;;;;;;;27.85;15.25;;;19.60;96.90;;;;;;4256524;27;20051;-64
2021/09/01 09:30:35;;;;;;;27.70;14.90;;;19.60;96.70;;;;;;4256342;27;20051;-64
2021/09/01 09:32:53;;;;;;;32.10;15.68;;;19.60;96.60;;;;;;4257026;27;20415;-64
2021/09/01 09:35:00;;;;;;;25.60;13.80;;;19.70;96.40;;;;;;4254666;27;20047;-64
2021/09/01 09:37:05;;;;;;;25.83;14.07;;;19.80;96.60;;;;;;4256408;27;20077;-65
2021/09/01 09:39:08;;;;;;;24.98;13.25;;;19.90;96.20;;;;;;4256345;27;20364;-64
2021/09/01 09:41:23;;;;;;;34.78;14.02;;;19.90;96.30;;;;;;4255397;27;20288;-64
2021/09/01 09:43:27;;;;;;;25.48;13.77;;;20.00;95.90;;;;;;4256377;27;20285;-64
2021/09/01 09:45:30;;;;;;;28.45;13.75;;;20.00;95.90;;;;;;4256512;27;20047;-64
2021/09/01 09:47:45;;;;;;;37.78;13.85;;;20.30;95.80;;;;;;4256355;27;20112;-64
2021/09/01 09:50:06;;;;;;;23.08;12.93;;;20.10;95.60;;;;;;4256125;27;20100;-64
2021/09/01 09:52:15;;;;;;;24.70;13.55;;;20.30;95.30;;;;;;4264238;27;20051;-64
2021/09/01 09:54:21;;;;;;;23.05;12.90;;;20.20;95.30;;;;;;4268415;27;20129;-65
2021/09/01 09:56:26;;;;;;;24.83;14.13;;;20.50;95.40;;;;;;4263628;27;20047;-64
2021/09/01 09:58:31;;;;;;;23.50;13.07;;;20.40;95.00;;;;;;4272608;27;20074;-67
2021/09/01 10:00:34;;;;;;;29.05;13.40;;;20.50;95.00;;;;;;4272367;27;20047;-65
2021/09/01 10:02:41;;;;;;;26.15;13.50;;;20.60;94.70;;;;;;4273499;27;20114;-65
2021/09/01 10:04:45;;;;;;;25.88;13.43;;;20.60;94.50;;;;;;4256091;27;20107;-65
2021/09/01 10:06:49;;;;;;;27.45;13.35;;;20.50;94.60;;;;;;4255561;27;20333;-65
2021/09/01 10:08:54;;;;;;;23.48;12.60;;;20.50;94.90;;;;;;4253562;27;20051;-65
2021/09/01 10:10:59;;;;;;;43.63;13.97;;;20.50;94.50;;;;;;4267701;27;20354;-64
2021/09/01 10:13:05;;;;;;;;;;;20.50;94.60;;;;;;4273366;27;20512;-64
2021/09/01 10:15:11;;;;;;;24.60;13.80;;;20.60;94.50;;;;;;4258805;27;19967;-64
2021/09/01 10:17:14;;;;;;;18.70;12.35;;;20.80;94.60;;;;;;4255832;27;20051;-64
2021/09/01 10:19:20;;;;;;;24.23;12.75;;;21.00;94.00;;;;;;4237610;27;20069;-65
2021/09/01 10:21:24;;;;;;;;;;;21.10;93.90;;;;;;4262113;27;20361;-65
2021/09/01 10:23:39;;;;;;;20.08;11.57;;;21.00;93.80;;;;;;4255172;27;19931;-64
2021/09/01 10:25:51;;;;;;;21.02;13.15;;;20.90;93.70;;;;;;4270647;27;20142;-65
2021/09/01 10:28:33;;;;;;;22.10;12.27;;;20.70;93.50;;;;;;4254237;27;20250;-64
2021/09/01 10:30:36;;;;;;;20.80;11.43;;;20.90;93.60;;;;;;4272258;27;20091;-65